TimePDT,TemperatureF,Dew PointF,Humidity,Sea Level PressureIn,VisibilityMPH,Wind Direction,Wind SpeedMPH,Gust SpeedMPH,PrecipitationIn,Events,Conditions,WindDirDegrees,DateUTC
12:54 AM,55.0,51.1,86,30.12,10.0,SW,8.1,-,N/A,,Overcast,220,2013-05-16 07:54:00
1:54 AM,55.0,51.1,86,30.12,10.0,West,5.8,-,N/A,,Overcast,260,2013-05-16 08:54:00
2:54 AM,55.0,52.0,89,30.11,10.0,SW,6.9,-,N/A,,Overcast,230,2013-05-16 09:54:00
3:54 AM,55.0,51.1,86,30.09,10.0,SSW,6.9,-,N/A,,Overcast,210,2013-05-16 10:54:00
4:54 AM,55.0,51.1,86,30.09,10.0,WSW,6.9,-,N/A,,Overcast,240,2013-05-16 11:54:00
5:54 AM,55.0,52.0,89,30.09,10.0,SW,4.6,-,N/A,,Overcast,230,2013-05-16 12:54:00
6:54 AM,55.0,52.0,89,30.10,10.0,WSW,5.8,-,N/A,,Overcast,240,2013-05-16 13:54:00
7:54 AM,55.0,52.0,89,30.12,10.0,West,5.8,-,N/A,,Overcast,260,2013-05-16 14:54:00
8:21 AM,55.4,53.6,94,30.08,8.0,West,4.6,-,0.00,Rain,Light Rain,260,2013-05-16 15:21:00
8:54 AM,55.0,53.1,93,30.12,9.0,Calm,Calm,-,0.00,,Overcast,0,2013-05-16 15:54:00
9:54 AM,55.9,54.0,93,30.12,10.0,WNW,3.5,-,N/A,,Overcast,290,2013-05-16 16:54:00
10:54 AM,60.1,54.0,80,30.11,10.0,Calm,Calm,-,N/A,,Mostly Cloudy,0,2013-05-16 17:54:00
11:14 AM,62.6,53.6,72,30.07,10.0,NNW,4.6,-,N/A,,Partly Cloudy,330,2013-05-16 18:14:00
12:54 PM,64.9,53.1,65,30.10,10.0,NW,8.1,-,N/A,,Clear,320,2013-05-16 19:54:00
1:54 PM,64.9,54.0,68,30.09,10.0,WNW,9.2,-,N/A,,Scattered Clouds,290,2013-05-16 20:54:00
3:54 PM,63.0,52.0,67,30.08,10.0,West,11.5,-,N/A,,Scattered Clouds,260,2013-05-16 22:54:00
4:54 PM,64.0,51.1,63,30.06,10.0,West,9.2,-,N/A,,Clear,270,2013-05-16 23:54:00
5:54 PM,60.1,52.0,75,30.07,10.0,West,8.1,-,N/A,,Scattered Clouds,260,2013-05-17 00:54:00
6:54 PM,57.9,50.0,75,30.06,10.0,WSW,10.4,-,N/A,,Clear,240,2013-05-17 01:54:00
7:54 PM,57.0,48.0,72,30.07,10.0,WSW,6.9,-,N/A,,Clear,240,2013-05-17 02:54:00
8:54 PM,55.9,48.9,77,30.08,10.0,WSW,5.8,-,N/A,,Clear,250,2013-05-17 03:54:00
9:54 PM,55.0,50.0,83,30.09,10.0,SSW,9.2,-,N/A,,Clear,210,2013-05-17 04:54:00
10:08 PM,53.6,50.0,88,30.06,10.0,SSW,8.1,-,N/A,,Partly Cloudy,210,2013-05-17 05:08:00
10:26 PM,55.4,51.8,88,30.06,10.0,Variable,3.5,-,N/A,,Mostly Cloudy,0,2013-05-17 05:26:00
10:54 PM,54.0,51.1,90,30.09,10.0,South,5.8,-,N/A,,Overcast,190,2013-05-17 05:54:00
11:38 PM,53.6,48.2,82,30.05,10.0,Calm,Calm,-,N/A,,Mostly Cloudy,0,2013-05-17 06:38:00
11:54 PM,54.0,48.9,83,30.09,10.0,SSE,4.6,-,N/A,,Scattered Clouds,150,2013-05-17 06:54:00